createdAt,value
2022-09-12T00:01:51.592Z,100509.75
2022-09-12T00:04:18.508Z,100497.00
2022-09-12T00:06:45.289Z,100501.91
2022-09-12T00:09:14.241Z,100510.41
2022-09-12T00:11:43.711Z,100511.00
2022-09-12T00:14:13.513Z,100510.19
2022-09-12T00:16:40.258Z,100502.38
2022-09-12T00:19:08.360Z,100506.47
2022-09-12T00:21:36.937Z,100503.78
2022-09-12T00:24:03.678Z,100501.94
2022-09-12T00:26:31.014Z,100505.44
2022-09-12T00:28:57.886Z,100506.88
2022-09-12T00:31:26.532Z,100500.69
2022-09-12T00:33:56.465Z,100495.94
2022-09-12T00:36:24.803Z,100490.78
2022-09-12T00:38:51.756Z,100490.16
2022-09-12T00:41:24.983Z,100479.41
2022-09-12T00:43:54.829Z,100480.63
2022-09-12T00:46:40.127Z,100491.34
2022-09-12T00:49:20.803Z,100493.00
2022-09-12T00:51:52.708Z,100495.69
2022-09-12T00:54:24.564Z,100491.13
2022-09-12T00:56:54.107Z,100490.31
2022-09-12T00:59:27.774Z,100493.19
2022-09-12T01:01:56.282Z,100501.81
2022-09-12T01:04:25.983Z,100496.44
2022-09-12T01:06:54.332Z,100496.91
2022-09-12T01:09:23.341Z,100498.09
2022-09-12T01:11:51.717Z,100494.16
2022-09-12T01:14:19.781Z,100499.13
2022-09-12T01:16:48.774Z,100501.38
2022-09-12T01:19:53.056Z,100498.69
2022-09-12T01:23:01.825Z,100485.84
2022-09-12T01:25:37.267Z,100493.91
2022-09-12T01:28:41.671Z,100497.47
2022-09-12T01:31:26.822Z,100490.44
2022-09-12T01:34:01.271Z,100493.72
2022-09-12T01:36:51.564Z,100487.78
2022-09-12T01:39:24.014Z,100487.94
2022-09-12T01:42:12.395Z,100488.94
2022-09-12T01:45:03.365Z,100483.56
2022-09-12T01:47:56.161Z,100483.16
2022-09-12T01:50:28.050Z,100472.59
2022-09-12T01:53:00.639Z,100478.19
2022-09-12T01:55:27.298Z,100472.84
2022-09-12T01:58:06.329Z,100474.91
2022-09-12T02:00:37.803Z,100471.59
2022-09-12T02:03:38.027Z,100482.94
2022-09-12T02:06:12.049Z,100482.72
2022-09-12T02:08:45.499Z,100481.06
2022-09-12T02:11:13.029Z,100472.97
2022-09-12T02:13:42.327Z,100473.78
2022-09-12T02:16:32.322Z,100470.91
2022-09-12T02:19:07.509Z,100471.91
2022-09-12T02:21:36.573Z,100466.56
2022-09-12T02:24:05.655Z,100471.72
2022-09-12T02:26:44.014Z,100470.69
2022-09-12T02:29:10.722Z,100466.94
2022-09-12T02:31:49.759Z,100472.75
2022-09-12T02:34:59.712Z,100458.31
2022-09-12T02:37:49.358Z,100464.03
2022-09-12T02:40:16.252Z,100461.59
2022-09-12T02:42:43.230Z,100462.81
2022-09-12T02:45:11.993Z,100456.81
2022-09-12T02:48:00.978Z,100458.06
2022-09-12T02:50:28.531Z,100462.63
2022-09-12T02:52:59.794Z,100449.19
2022-09-12T02:55:30.445Z,100454.16
2022-09-12T02:57:57.337Z,100452.25
2022-09-12T03:00:25.359Z,100453.50
2022-09-12T03:03:42.700Z,100449.41
2022-09-12T03:06:34.949Z,100457.06
2022-09-12T03:09:16.716Z,100459.28
2022-09-12T03:11:49.894Z,100450.63
2022-09-12T03:14:50.304Z,100456.00
2022-09-12T03:17:38.031Z,100452.09
2022-09-12T03:20:17.049Z,100451.25
2022-09-12T03:22:53.504Z,100447.13
2022-09-12T03:25:47.086Z,100445.88
2022-09-12T03:28:19.084Z,100453.31
2022-09-12T03:30:48.430Z,100453.50
2022-09-12T03:33:17.982Z,100453.31
2022-09-12T03:35:45.405Z,100462.81
2022-09-12T03:38:12.265Z,100467.28
2022-09-12T03:40:39.435Z,100459.03
2022-09-12T03:43:08.233Z,100471.22
2022-09-12T03:45:35.571Z,100467.91
2022-09-12T03:48:03.065Z,100466.19
2022-09-12T03:50:29.760Z,100468.25
2022-09-12T03:52:59.633Z,100470.06
2022-09-12T03:55:26.808Z,100479.53
2022-09-12T03:57:54.409Z,100478.16
2022-09-12T04:00:22.034Z,100483.94
2022-09-12T04:02:48.878Z,100478.38
2022-09-12T04:05:15.723Z,100487.13
2022-09-12T04:07:42.500Z,100482.38
2022-09-12T04:10:09.805Z,100490.22
2022-09-12T04:12:36.703Z,100483.19
2022-09-12T04:15:03.646Z,100483.59
2022-09-12T04:17:30.287Z,100498.63
2022-09-12T04:19:56.983Z,100493.41
2022-09-12T04:22:23.872Z,100499.38
2022-09-12T04:24:50.559Z,100498.94
2022-09-12T04:27:17.260Z,100499.56
2022-09-12T04:29:43.913Z,100493.84
2022-09-12T04:32:10.759Z,100490.25
2022-09-12T04:34:37.457Z,100490.31
2022-09-12T04:37:04.312Z,100495.69
2022-09-12T04:39:31.098Z,100493.91
2022-09-12T04:41:57.850Z,100503.63
2022-09-12T04:44:24.671Z,100505.34
2022-09-12T04:46:52.750Z,100500.38
2022-09-12T04:49:19.524Z,100502.44
2022-09-12T04:51:46.771Z,100501.59
2022-09-12T04:54:18.055Z,100500.19
2022-09-12T04:56:48.999Z,100506.19
2022-09-12T04:59:18.080Z,100497.94
2022-09-12T05:01:44.873Z,100500.00
2022-09-12T05:04:13.158Z,100493.19
2022-09-12T05:06:41.709Z,100499.81
2022-09-12T05:09:14.320Z,100504.19
2022-09-12T05:14:33.919Z,100504.00
2022-09-12T05:17:01.870Z,100509.16
2022-09-12T05:19:30.445Z,100514.75
2022-09-12T05:21:57.411Z,100515.19
2022-09-12T05:24:24.770Z,100523.66
2022-09-12T05:26:51.813Z,100515.81
2022-09-12T05:29:19.028Z,100521.63
2022-09-12T05:31:46.026Z,100521.28
2022-09-12T05:34:13.035Z,100524.81
2022-09-12T05:36:39.817Z,100521.94
2022-09-12T05:39:06.788Z,100523.25
2022-09-12T05:41:34.083Z,100531.91
2022-09-12T05:44:03.550Z,100528.16
2022-09-12T05:46:32.888Z,100525.22
2022-09-12T05:49:04.051Z,100527.25
2022-09-12T05:51:34.043Z,100525.38
2022-09-12T05:54:03.390Z,100533.38
2022-09-12T05:56:32.323Z,100530.53
2022-09-12T05:59:02.037Z,100521.06
2022-09-12T06:01:30.487Z,100527.47
2022-09-12T06:04:01.026Z,100528.25
2022-09-12T06:06:29.427Z,100526.34
2022-09-12T06:09:06.433Z,100534.03
2022-09-12T06:11:35.454Z,100532.00
2022-09-12T06:14:02.320Z,100534.97
2022-09-12T06:16:31.909Z,100530.78
2022-09-12T06:19:01.121Z,100534.16
2022-09-12T06:21:30.793Z,100541.44
2022-09-12T06:23:59.018Z,100536.47
2022-09-12T06:26:26.152Z,100533.59
2022-09-12T06:28:54.694Z,100531.75
2022-09-12T06:31:25.201Z,100541.69
2022-09-12T06:33:53.678Z,100534.47
2022-09-12T06:36:26.276Z,100534.28
2022-09-12T06:39:26.677Z,100538.59
2022-09-12T06:41:53.413Z,100537.13
2022-09-12T06:44:33.018Z,100533.00
2022-09-12T06:46:59.802Z,100540.44
2022-09-12T06:49:26.751Z,100542.28
2022-09-12T06:51:53.608Z,100535.84
2022-09-12T06:54:20.393Z,100545.16
2022-09-12T06:56:47.147Z,100545.38
2022-09-12T06:59:13.919Z,100539.75
2022-09-12T07:01:41.883Z,100542.03
2022-09-12T07:04:09.088Z,100534.16
2022-09-12T07:06:41.621Z,100539.28
2022-09-12T07:09:12.610Z,100538.00
2022-09-12T07:11:41.135Z,100536.53
2022-09-12T07:14:09.882Z,100534.69
2022-09-12T07:16:37.217Z,100540.44
2022-09-12T07:19:06.137Z,100538.53
2022-09-12T07:21:33.041Z,100541.19
2022-09-12T07:23:59.795Z,100537.00
2022-09-12T07:26:30.239Z,100534.06
2022-09-12T07:29:13.148Z,100543.97
2022-09-12T07:31:46.362Z,100541.63
2022-09-12T07:34:13.999Z,100538.06
2022-09-12T07:36:40.822Z,100541.97
2022-09-12T07:39:07.479Z,100541.53
2022-09-12T07:41:34.323Z,100547.72
2022-09-12T07:44:02.728Z,100552.50
2022-09-12T07:46:31.338Z,100550.38
2022-09-12T07:49:00.030Z,100545.63
2022-09-12T07:51:28.284Z,100545.41
2022-09-12T07:53:56.359Z,100540.38
2022-09-12T07:56:29.320Z,100545.13
2022-09-12T07:58:56.996Z,100542.66
2022-09-12T08:01:23.748Z,100542.41
2022-09-12T08:03:54.867Z,100542.56
2022-09-12T08:06:25.879Z,100540.31
2022-09-12T08:08:55.444Z,100536.72
2022-09-12T08:11:23.683Z,100540.78
2022-09-12T08:13:55.255Z,100540.69
2022-09-12T08:16:24.688Z,100543.72
2022-09-12T08:18:51.496Z,100538.09
2022-09-12T08:21:24.622Z,100539.59
2022-09-12T08:24:03.784Z,100537.94
2022-09-12T08:26:31.506Z,100537.94
2022-09-12T08:28:58.764Z,100537.50
2022-09-12T08:31:27.340Z,100549.28
2022-09-12T08:33:58.220Z,100547.56
2022-09-12T08:36:27.436Z,100544.47
2022-09-12T08:38:59.332Z,100546.06
2022-09-12T08:42:01.831Z,100549.91
2022-09-12T08:44:53.533Z,100547.53
2022-09-12T08:47:47.085Z,100540.84
2022-09-12T08:50:15.817Z,100546.19
2022-09-12T08:52:49.788Z,100544.47
2022-09-12T08:55:45.821Z,100536.94
2022-09-12T08:58:22.744Z,100527.50
2022-09-12T09:01:02.058Z,100531.56
2022-09-12T09:04:06.525Z,100523.63
2022-09-12T09:06:46.027Z,100523.53
2022-09-12T09:09:18.010Z,100529.91
2022-09-12T09:12:06.779Z,100525.31
2022-09-12T09:15:11.517Z,100529.25
2022-09-12T09:17:43.487Z,100524.66
2022-09-12T09:20:45.401Z,100521.41
2022-09-12T09:23:26.017Z,100513.41
2022-09-12T09:25:56.057Z,100518.72
2022-09-12T09:28:34.088Z,100512.75
2022-09-12T09:31:02.030Z,100514.03
2022-09-12T09:33:35.247Z,100521.91
2022-09-12T09:36:17.340Z,100513.00
2022-09-12T09:39:03.101Z,100508.06
2022-09-12T09:41:37.604Z,100517.75
2022-09-12T09:44:04.735Z,100507.41
2022-09-12T09:46:32.498Z,100501.47
2022-09-12T09:49:03.444Z,100508.69
2022-09-12T09:51:36.137Z,100496.94
2022-09-12T09:54:16.069Z,100496.22
2022-09-12T09:56:42.917Z,100493.75
2022-09-12T09:59:16.826Z,100479.19
2022-09-12T10:02:03.352Z,100485.53
2022-09-12T10:04:36.919Z,100495.06
2022-09-12T10:07:06.461Z,100500.81
2022-09-12T10:09:36.104Z,100487.06
2022-09-12T10:12:20.060Z,100486.28
2022-09-12T10:15:01.782Z,100493.47
2022-09-12T10:17:34.150Z,100483.34
2022-09-12T10:20:20.310Z,100487.13
2022-09-12T10:22:49.135Z,100478.41
2022-09-12T10:25:19.081Z,100481.50
2022-09-12T10:27:53.692Z,100481.63
2022-09-12T10:30:24.828Z,100470.88
2022-09-12T10:32:54.159Z,100470.41
2022-09-12T10:35:28.982Z,100478.41
2022-09-12T10:37:57.849Z,100463.09
2022-09-12T10:40:28.694Z,100478.50
2022-09-12T10:42:58.179Z,100472.00
2022-09-12T10:45:26.388Z,100466.50
2022-09-12T10:47:55.011Z,100463.34
2022-09-12T10:50:32.309Z,100462.91
2022-09-12T10:53:25.325Z,100461.59
2022-09-12T10:56:06.845Z,100462.75
2022-09-12T10:58:58.519Z,100462.25
2022-09-12T11:01:50.749Z,100466.38
2022-09-12T11:04:28.027Z,100458.94
2022-09-12T11:07:19.515Z,100455.97
2022-09-12T11:09:54.781Z,100455.13
2022-09-12T11:12:36.452Z,100453.50
2022-09-12T11:15:17.234Z,100451.66
2022-09-12T11:17:51.990Z,100448.97
2022-09-12T11:20:32.011Z,100446.50
2022-09-12T11:23:13.724Z,100444.91
2022-09-12T11:26:11.821Z,100447.63
2022-09-12T11:28:57.823Z,100446.06
2022-09-12T11:32:00.688Z,100433.78
2022-09-12T11:35:05.977Z,100445.06
2022-09-12T11:38:00.643Z,100441.25
2022-09-12T11:40:40.723Z,100445.81
2022-09-12T11:43:12.899Z,100445.91
2022-09-12T11:45:45.194Z,100443.78
2022-09-12T11:48:20.857Z,100453.94
2022-09-12T11:50:47.691Z,100448.31
2022-09-12T11:53:26.450Z,100443.03
2022-09-12T11:56:08.714Z,100445.28
2022-09-12T11:58:37.423Z,100442.31
2022-09-12T12:01:20.863Z,100446.78
2022-09-12T12:03:48.962Z,100446.31
2022-09-12T12:06:25.616Z,100451.97
2022-09-12T12:08:53.234Z,100451.84
2022-09-12T12:11:49.795Z,100455.63
2022-09-12T12:14:45.639Z,100443.75
2022-09-12T12:17:18.417Z,100435.59
2022-09-12T12:19:47.290Z,100439.94
2022-09-12T12:22:23.203Z,100432.63
2022-09-12T12:25:15.476Z,100425.34
2022-09-12T12:27:53.542Z,100435.09
2022-09-12T12:31:10.768Z,100428.03
2022-09-12T12:33:37.504Z,100429.88
2022-09-12T12:36:30.312Z,100425.63
2022-09-12T12:38:57.386Z,100429.88
2022-09-12T12:41:26.919Z,100423.31
2022-09-12T12:43:56.288Z,100420.59
2022-09-12T12:46:25.555Z,100414.00
2022-09-12T12:49:27.010Z,100414.75
2022-09-12T12:51:53.637Z,100416.69
2022-09-12T12:54:42.161Z,100415.50
2022-09-12T12:57:27.623Z,100424.44
2022-09-12T12:59:54.388Z,100427.69
2022-09-12T13:02:37.427Z,100426.66
2022-09-12T13:05:16.281Z,100426.38
2022-09-12T13:07:44.090Z,100433.56
2022-09-12T13:10:28.872Z,100433.78
2022-09-12T13:13:00.441Z,100429.94
2022-09-12T13:15:36.134Z,100424.75
2022-09-12T13:18:17.160Z,100425.91
2022-09-12T13:21:21.885Z,100420.50
2022-09-12T13:24:15.535Z,100416.66
2022-09-12T13:26:46.983Z,100420.44
2022-09-12T13:29:18.519Z,100412.22
2022-09-12T13:31:52.919Z,100415.75
2022-09-12T13:34:27.153Z,100415.25
2022-09-12T13:37:03.243Z,100407.72
2022-09-12T13:39:47.735Z,100403.16
2022-09-12T13:42:33.395Z,100407.97
2022-09-12T13:45:17.394Z,100403.16
2022-09-12T13:47:46.858Z,100399.50
2022-09-12T13:50:23.779Z,100401.16
2022-09-12T13:52:53.971Z,100401.97
2022-09-12T13:55:46.222Z,100396.28
2022-09-12T13:58:27.604Z,100403.66
2022-09-12T14:01:15.145Z,100403.78
2022-09-12T14:04:14.430Z,100402.88
2022-09-12T14:06:52.540Z,100397.59
2022-09-12T14:09:40.659Z,100396.78
2022-09-12T14:12:20.598Z,100382.50
2022-09-12T14:14:50.080Z,100388.03
2022-09-12T14:17:18.955Z,100382.69
2022-09-12T14:19:49.369Z,100385.75
2022-09-12T14:22:18.057Z,100386.69
2022-09-12T14:24:51.762Z,100378.19
2022-09-12T14:27:31.635Z,100371.97
2022-09-12T14:30:07.510Z,100371.19
2022-09-12T14:32:35.030Z,100373.44
2022-09-12T14:35:19.740Z,100366.16
2022-09-12T14:37:50.595Z,100369.34
2022-09-12T14:40:19.138Z,100375.00
2022-09-12T14:42:49.508Z,100373.34
2022-09-12T14:45:30.188Z,100365.47
2022-09-12T14:47:58.692Z,100359.00
2022-09-12T14:50:27.828Z,100356.66
2022-09-12T14:53:23.620Z,100355.13
2022-09-12T14:55:59.230Z,100351.69
2022-09-12T14:58:28.277Z,100339.81
2022-09-12T15:01:23.738Z,100347.09
2022-09-12T15:03:53.988Z,100335.44
2022-09-12T15:06:23.061Z,100339.44
2022-09-12T15:08:50.111Z,100341.22
2022-09-12T15:11:16.931Z,100339.81
2022-09-12T15:13:43.577Z,100336.50
2022-09-12T15:16:11.670Z,100341.72
2022-09-12T15:18:38.871Z,100332.69
2022-09-12T15:21:08.220Z,100338.66
2022-09-12T15:23:44.176Z,100333.94
2022-09-12T15:26:19.567Z,100327.56
2022-09-12T15:28:46.855Z,100332.38
2022-09-12T15:31:24.005Z,100329.94
2022-09-12T15:33:50.790Z,100335.59
2022-09-12T15:36:20.689Z,100333.78
2022-09-12T15:38:49.160Z,100335.25
2022-09-12T15:41:26.886Z,100338.19
2022-09-12T15:43:53.589Z,100332.31
2022-09-12T15:46:20.645Z,100330.28
2022-09-12T15:48:47.537Z,100328.56
2022-09-12T15:51:16.910Z,100331.38
2022-09-12T15:53:44.752Z,100328.00
2022-09-12T15:56:12.142Z,100325.41
2022-09-12T15:58:54.588Z,100336.22
2022-09-12T16:01:24.318Z,100329.91
2022-09-12T16:03:51.285Z,100326.59
2022-09-12T16:06:18.015Z,100334.00
2022-09-12T16:08:44.722Z,100323.66
2022-09-12T16:11:19.036Z,100327.03
2022-09-12T16:13:45.731Z,100323.88
2022-09-12T16:16:12.594Z,100325.16
2022-09-12T16:18:40.445Z,100321.88
2022-09-12T16:21:10.112Z,100323.41
2022-09-12T16:23:45.974Z,100328.81
2022-09-12T16:26:13.404Z,100326.59
2022-09-12T16:28:40.474Z,100330.22
2022-09-12T16:31:09.203Z,100338.34
2022-09-12T16:33:37.964Z,100340.94
2022-09-12T16:36:10.566Z,100332.56
2022-09-12T16:38:44.786Z,100338.91
2022-09-12T16:41:11.990Z,100333.38
2022-09-12T16:43:39.166Z,100338.06
2022-09-12T16:46:16.921Z,100333.25
2022-09-12T16:48:49.566Z,100326.56
2022-09-12T16:51:20.445Z,100329.22
2022-09-12T16:53:47.417Z,100332.91
2022-09-12T16:56:14.932Z,100337.22
2022-09-12T16:58:42.400Z,100335.22
2022-09-12T17:01:26.315Z,100338.72
2022-09-12T17:03:58.020Z,100329.81
2022-09-12T17:06:26.230Z,100331.97
2022-09-12T17:08:54.763Z,100331.69
2022-09-12T17:11:26.969Z,100334.00
2022-09-12T17:14:11.381Z,100335.00
2022-09-12T17:16:43.183Z,100343.88
2022-09-12T17:19:22.250Z,100343.22
2022-09-12T17:21:50.203Z,100347.41
2022-09-12T17:24:17.598Z,100348.22
2022-09-12T17:26:45.293Z,100337.94
2022-09-12T17:29:16.472Z,100344.22
2022-09-12T17:31:44.805Z,100352.81
2022-09-12T17:34:14.519Z,100352.28
2022-09-12T17:36:44.451Z,100352.41
2022-09-12T17:39:12.313Z,100360.75
2022-09-12T17:41:39.547Z,100358.97
2022-09-12T17:44:07.821Z,100360.69
2022-09-12T17:46:39.263Z,100369.72
2022-09-12T17:49:09.579Z,100371.53
2022-09-12T17:51:36.373Z,100367.63
2022-09-12T17:54:08.604Z,100370.53
2022-09-12T17:56:37.200Z,100374.50
2022-09-12T17:59:05.978Z,100371.22
2022-09-12T18:01:51.906Z,100372.25
2022-09-12T18:04:20.090Z,100376.38
2022-09-12T18:06:50.277Z,100378.47
2022-09-12T18:09:19.679Z,100386.13
2022-09-12T18:11:48.135Z,100391.94
2022-09-12T18:14:15.647Z,100397.16
2022-09-12T18:16:43.282Z,100397.75
2022-09-12T18:19:10.986Z,100394.47
2022-09-12T18:21:38.118Z,100398.00
2022-09-12T18:24:05.248Z,100396.53
2022-09-12T18:26:32.787Z,100403.78
2022-09-12T18:28:59.777Z,100412.03
2022-09-12T18:31:29.493Z,100416.16
2022-09-12T18:33:57.014Z,100416.78
2022-09-12T18:36:23.777Z,100411.63
2022-09-12T18:38:50.530Z,100416.97
2022-09-12T18:41:20.029Z,100421.31
2022-09-12T18:43:47.068Z,100420.84
2022-09-12T18:46:19.067Z,100421.03
2022-09-12T18:48:46.808Z,100418.16
2022-09-12T18:51:20.055Z,100427.44
2022-09-12T18:53:53.045Z,100423.91
2022-09-12T18:56:21.076Z,100423.03
2022-09-12T18:58:52.966Z,100425.28
2022-09-12T19:01:25.803Z,100426.75
2022-09-12T19:03:53.717Z,100427.34
2022-09-12T19:06:28.855Z,100429.56
2022-09-12T19:08:57.042Z,100427.06
2022-09-12T19:11:26.072Z,100434.91
2022-09-12T19:13:54.419Z,100424.72
2022-09-12T19:16:24.355Z,100433.34
2022-09-12T19:18:52.407Z,100431.22
2022-09-12T19:21:25.372Z,100435.78
2022-09-12T19:23:53.784Z,100429.16
2022-09-12T19:26:21.051Z,100427.28
2022-09-12T19:28:48.565Z,100429.19
2022-09-12T19:31:18.960Z,100431.19
2022-09-12T19:33:47.199Z,100421.69
2022-09-12T19:36:34.117Z,100429.31
2022-09-12T19:39:04.901Z,100428.22
2022-09-12T19:41:32.574Z,100427.75
2022-09-12T19:43:59.472Z,100427.03
2022-09-12T19:46:26.729Z,100424.88
2022-09-12T19:48:53.962Z,100427.72
2022-09-12T19:51:22.308Z,100430.38
2022-09-12T19:53:50.293Z,100435.06
2022-09-12T19:56:17.198Z,100433.75
2022-09-12T19:58:46.365Z,100432.94
2022-09-12T20:01:22.394Z,100433.06
2022-09-12T20:03:49.235Z,100432.81
2022-09-12T20:06:17.696Z,100441.00
2022-09-12T20:08:44.920Z,100436.84
2022-09-12T20:11:13.846Z,100436.84
2022-09-12T20:13:41.340Z,100438.94
2022-09-12T20:16:19.025Z,100433.53
2022-09-12T20:18:47.542Z,100436.84
2022-09-12T20:21:19.657Z,100434.31
2022-09-12T20:23:46.903Z,100432.38
2022-09-12T20:26:13.930Z,100429.91
2022-09-12T20:28:41.865Z,100426.31
2022-09-12T20:31:14.142Z,100430.28
2022-09-12T20:33:41.373Z,100436.56
2022-09-12T20:36:14.235Z,100434.00
2022-09-12T20:38:42.273Z,100431.13
2022-09-12T20:41:12.663Z,100435.28
2022-09-12T20:43:40.135Z,100441.72
2022-09-12T20:46:11.081Z,100443.97
2022-09-12T20:48:38.995Z,100432.34
2022-09-12T20:51:06.662Z,100449.13
2022-09-12T20:53:35.321Z,100436.09
2022-09-12T20:56:03.556Z,100435.75
2022-09-12T20:58:30.278Z,100433.06
2022-09-12T21:00:57.215Z,100426.88
2022-09-12T21:03:25.422Z,100432.16
2022-09-12T21:05:52.417Z,100435.75
2022-09-12T21:08:19.169Z,100429.13
2022-09-12T21:10:45.919Z,100431.59
2022-09-12T21:13:13.529Z,100428.94
2022-09-12T21:15:41.518Z,100428.03
2022-09-12T21:18:08.337Z,100430.03
2022-09-12T21:20:35.128Z,100434.75
2022-09-12T21:23:02.479Z,100423.97
2022-09-12T21:25:30.406Z,100429.03
2022-09-12T21:27:57.439Z,100426.50
2022-09-12T21:30:24.233Z,100428.31
2022-09-12T21:32:50.896Z,100425.75
2022-09-12T21:35:17.666Z,100429.56
2022-09-12T21:37:44.391Z,100429.91
2022-09-12T21:40:11.364Z,100427.78
2022-09-12T21:42:38.180Z,100423.53
2022-09-12T21:45:05.416Z,100428.34
2022-09-12T21:47:32.227Z,100426.22
2022-09-12T21:49:59.010Z,100424.06
2022-09-12T21:52:25.664Z,100428.13
2022-09-12T21:54:52.396Z,100422.53
2022-09-12T21:57:19.053Z,100420.88
2022-09-12T21:59:45.883Z,100424.66
2022-09-12T22:02:13.827Z,100424.16
2022-09-12T22:04:40.639Z,100418.72
2022-09-12T22:07:07.926Z,100419.75
2022-09-12T22:09:35.332Z,100408.97
2022-09-12T22:12:02.496Z,100422.25
2022-09-12T22:14:29.705Z,100420.16
2022-09-12T22:16:56.893Z,100418.84
2022-09-12T22:19:23.691Z,100410.28
2022-09-12T22:22:09.119Z,100416.44
2022-09-12T22:24:36.008Z,100417.66
2022-09-12T22:27:04.682Z,100422.63
2022-09-12T22:29:32.144Z,100417.81
2022-09-12T22:31:59.710Z,100420.88
2022-09-12T22:34:27.609Z,100419.47
2022-09-12T22:36:54.615Z,100416.91
2022-09-12T22:39:21.652Z,100421.91
2022-09-12T22:41:48.957Z,100420.59
2022-09-12T22:44:17.775Z,100414.25
2022-09-12T22:46:45.173Z,100414.44
2022-09-12T22:49:12.874Z,100411.19
2022-09-12T22:51:39.861Z,100404.75
2022-09-12T22:54:07.403Z,100408.25
2022-09-12T22:56:34.103Z,100410.56
2022-09-12T22:59:01.262Z,100401.81
2022-09-12T23:01:27.973Z,100404.56
2022-09-12T23:03:54.670Z,100406.88
2022-09-12T23:06:21.358Z,100411.84
2022-09-12T23:08:48.065Z,100404.38
2022-09-12T23:11:17.300Z,100406.22
2022-09-12T23:13:45.803Z,100399.69
2022-09-12T23:16:21.779Z,100401.59
2022-09-12T23:18:49.577Z,100393.84
2022-09-12T23:21:19.038Z,100394.03
2022-09-12T23:23:46.134Z,100396.34
2022-09-12T23:26:18.648Z,100394.31
2022-09-12T23:29:00.836Z,100394.22
2022-09-12T23:31:32.318Z,100393.94
2022-09-12T23:34:02.216Z,100401.50
2022-09-12T23:36:29.902Z,100398.63
2022-09-12T23:38:56.771Z,100391.75
2022-09-12T23:41:24.311Z,100403.81
2022-09-12T23:43:51.682Z,100396.09
2022-09-12T23:46:19.202Z,100404.22
2022-09-12T23:48:46.299Z,100395.72
2022-09-12T23:51:13.222Z,100400.97
2022-09-12T23:53:41.440Z,100392.47
2022-09-12T23:56:08.399Z,100399.22
2022-09-12T23:58:35.094Z,100405.75
